createdAt,value
2018-03-19T00:00:06.392Z,101727.10
2018-03-19T00:01:12.927Z,101727.08
2018-03-19T00:02:17.714Z,101723.19
2018-03-19T00:03:22.696Z,101727.00
2018-03-19T00:04:27.594Z,101712.63
2018-03-19T00:05:32.423Z,101726.76
2018-03-19T00:06:38.687Z,101722.00
2018-03-19T00:07:43.918Z,101712.71
2018-03-19T00:08:48.746Z,101718.45
2018-03-19T00:09:53.711Z,101722.34
2018-03-19T00:10:58.805Z,101717.85
2018-03-19T00:12:03.641Z,101715.62
2018-03-19T00:13:09.540Z,101719.88
2018-03-19T00:14:15.455Z,101717.36
2018-03-19T00:15:20.609Z,101722.34
2018-03-19T00:16:25.465Z,101719.92
2018-03-19T00:17:30.254Z,101713.15
2018-03-19T00:18:35.066Z,101714.80
2018-03-19T00:19:40.286Z,101717.86
2018-03-19T00:20:45.519Z,101722.09
2018-03-19T00:21:50.547Z,101714.45
2018-03-19T00:22:55.429Z,101720.69
2018-03-19T00:24:00.421Z,101717.22
2018-03-19T00:25:05.716Z,101717.03
2018-03-19T00:26:11.232Z,101712.57
2018-03-19T00:27:16.380Z,101711.59
2018-03-19T00:28:21.410Z,101712.92
2018-03-19T00:29:26.529Z,101711.97
2018-03-19T00:30:31.772Z,101716.93
2018-03-19T00:31:36.653Z,101709.20
2018-03-19T00:32:42.210Z,101702.40
2018-03-19T00:33:47.519Z,101715.92
2018-03-19T00:34:52.684Z,101712.98
2018-03-19T00:35:57.983Z,101708.34
2018-03-19T00:37:03.090Z,101713.62
2018-03-19T00:38:08.028Z,101713.17
2018-03-19T00:39:13.376Z,101699.88
2018-03-19T00:40:18.353Z,101709.20
2018-03-19T00:41:23.422Z,101712.47
2018-03-19T00:42:28.439Z,101708.81
2018-03-19T00:43:33.600Z,101698.11
2018-03-19T00:44:38.666Z,101702.91
2018-03-19T00:45:44.375Z,101696.70
2018-03-19T00:46:49.375Z,101702.78
2018-03-19T00:47:54.475Z,101699.57
2018-03-19T00:48:59.539Z,101697.41
2018-03-19T00:50:04.552Z,101695.95
2018-03-19T00:51:11.138Z,101692.89
2018-03-19T00:52:16.265Z,101692.70
2018-03-19T00:53:21.050Z,101696.00
2018-03-19T00:54:26.361Z,101698.71
2018-03-19T00:55:31.734Z,101687.48
2018-03-19T00:56:37.380Z,101696.77
2018-03-19T00:57:42.343Z,101699.03
2018-03-19T00:58:47.966Z,101707.74
2018-03-19T00:59:53.018Z,101695.66
2018-03-19T01:00:58.054Z,101701.03
2018-03-19T01:02:03.070Z,101694.58
2018-03-19T01:03:08.554Z,101691.72
2018-03-19T01:04:14.654Z,101693.91
2018-03-19T01:05:19.966Z,101690.09
2018-03-19T01:06:24.923Z,101691.80
2018-03-19T01:07:29.780Z,101688.95
2018-03-19T01:08:34.985Z,101691.42
2018-03-19T01:09:40.500Z,101694.35
2018-03-19T01:10:45.918Z,101691.88
2018-03-19T01:11:51.256Z,101691.33
2018-03-19T01:12:56.279Z,101687.70
2018-03-19T01:14:01.464Z,101691.14
2018-03-19T01:15:07.498Z,101696.39
2018-03-19T01:16:13.134Z,101694.19
2018-03-19T01:17:18.580Z,101692.03
2018-03-19T01:18:23.696Z,101684.78
2018-03-19T01:19:28.996Z,101692.98
2018-03-19T01:20:34.139Z,101686.18
2018-03-19T01:21:39.486Z,101689.45
2018-03-19T01:22:44.761Z,101687.70
2018-03-19T01:23:50.020Z,101686.12
2018-03-19T01:24:55.122Z,101689.08
2018-03-19T01:26:00.420Z,101689.64
2018-03-19T01:27:05.794Z,101681.57
2018-03-19T01:28:11.022Z,101680.80
2018-03-19T01:29:15.861Z,101684.33
2018-03-19T01:30:21.470Z,101690.30
2018-03-19T01:31:26.748Z,101688.17
2018-03-19T01:32:31.865Z,101683.66
2018-03-19T01:33:37.367Z,101681.32
2018-03-19T01:34:42.605Z,101677.22
2018-03-19T01:35:47.809Z,101680.02
2018-03-19T01:36:53.007Z,101685.06
2018-03-19T01:37:58.367Z,101684.84
2018-03-19T01:39:03.570Z,101677.53
2018-03-19T01:40:08.820Z,101679.50
2018-03-19T01:41:13.797Z,101678.45
2018-03-19T01:42:18.997Z,101675.91
2018-03-19T01:43:24.478Z,101671.81
2018-03-19T01:44:29.682Z,101675.17
2018-03-19T01:45:35.456Z,101680.77
2018-03-19T01:46:40.368Z,101679.09
2018-03-19T01:47:45.590Z,101674.61
2018-03-19T01:48:50.686Z,101677.98
2018-03-19T01:49:56.183Z,101673.65
2018-03-19T01:51:01.610Z,101676.19
2018-03-19T01:52:06.626Z,101673.63
2018-03-19T01:53:12.294Z,101673.44
2018-03-19T01:54:17.687Z,101671.46
2018-03-19T01:55:22.952Z,101679.85
2018-03-19T01:56:28.040Z,101670.13
2018-03-19T01:57:33.175Z,101680.26
2018-03-19T01:58:38.393Z,101684.09
2018-03-19T01:59:43.891Z,101676.31
2018-03-19T02:00:49.905Z,101675.52
2018-03-19T02:01:54.857Z,101677.45
2018-03-19T02:02:59.910Z,101682.39
2018-03-19T02:04:05.055Z,101683.43
2018-03-19T02:05:10.084Z,101678.97
2018-03-19T02:06:15.436Z,101681.36
2018-03-19T02:07:20.475Z,101675.86
2018-03-19T02:08:26.029Z,101681.90
2018-03-19T02:09:31.014Z,101682.79
2018-03-19T02:10:36.359Z,101685.55
2018-03-19T02:11:41.709Z,101673.89
2018-03-19T02:12:47.373Z,101676.74
2018-03-19T02:13:52.747Z,101683.26
2018-03-19T02:14:57.984Z,101678.59
2018-03-19T02:16:03.562Z,101676.52
2018-03-19T02:17:08.577Z,101672.16
2018-03-19T02:18:14.858Z,101685.70
2018-03-19T02:19:20.485Z,101675.82
2018-03-19T02:20:25.478Z,101678.30
2018-03-19T02:21:30.723Z,101678.72
2018-03-19T02:22:35.497Z,101678.45
2018-03-19T02:23:40.318Z,101680.47
2018-03-19T02:24:45.322Z,101683.83
2018-03-19T02:25:50.735Z,101678.92
2018-03-19T02:26:55.481Z,101680.23
2018-03-19T02:28:00.671Z,101679.58
2018-03-19T02:29:05.827Z,101685.68
2018-03-19T02:30:13.080Z,101678.73
2018-03-19T02:31:18.162Z,101676.56
2018-03-19T02:32:23.178Z,101680.17
2018-03-19T02:33:27.879Z,101682.24
2018-03-19T02:34:32.837Z,101684.81
2018-03-19T02:35:37.439Z,101681.28
2018-03-19T02:36:42.359Z,101684.44
2018-03-19T02:37:47.458Z,101683.89
2018-03-19T02:38:52.420Z,101688.73
2018-03-19T02:39:57.381Z,101686.86
2018-03-19T02:41:02.449Z,101682.11
2018-03-19T02:42:07.156Z,101683.72
2018-03-19T02:43:12.536Z,101682.83
2018-03-19T02:44:18.298Z,101679.81
2018-03-19T02:45:24.243Z,101684.27
2018-03-19T02:46:29.155Z,101684.10
2018-03-19T02:47:33.854Z,101689.72
2018-03-19T02:48:38.772Z,101680.68
2018-03-19T02:49:43.568Z,101687.94
2018-03-19T02:50:48.147Z,101685.64
2018-03-19T02:51:53.161Z,101676.91
2018-03-19T02:52:57.720Z,101678.45
2018-03-19T02:54:02.682Z,101681.33
2018-03-19T02:55:07.731Z,101673.17
2018-03-19T02:56:12.516Z,101685.44
2018-03-19T02:57:18.237Z,101688.01
2018-03-19T02:58:23.166Z,101689.65
2018-03-19T02:59:28.375Z,101688.73
2018-03-19T03:00:33.200Z,101685.78
2018-03-19T03:01:37.980Z,101685.64
2018-03-19T03:02:42.818Z,101687.73
2018-03-19T03:03:48.034Z,101691.64
2018-03-19T03:04:52.762Z,101694.13
2018-03-19T03:05:57.730Z,101683.61
2018-03-19T03:07:02.400Z,101678.81
2018-03-19T03:08:07.267Z,101682.14
2018-03-19T03:09:12.192Z,101686.77
2018-03-19T03:10:17.391Z,101687.29
2018-03-19T03:11:22.388Z,101685.70
2018-03-19T03:12:28.053Z,101685.84
2018-03-19T03:13:33.410Z,101685.74
2018-03-19T03:14:37.942Z,101690.73
2018-03-19T03:15:43.110Z,101688.11
2018-03-19T03:16:48.080Z,101684.58
2018-03-19T03:17:52.945Z,101696.50
2018-03-19T03:18:57.640Z,101688.28
2018-03-19T03:20:02.707Z,101687.69
2018-03-19T03:21:07.671Z,101699.63
2018-03-19T03:22:12.335Z,101698.43
2018-03-19T03:23:17.322Z,101708.73
2018-03-19T03:24:22.341Z,101704.55
2018-03-19T03:25:27.043Z,101697.75
2018-03-19T03:26:31.901Z,101702.78
2018-03-19T03:27:36.457Z,101709.80
2018-03-19T03:28:41.071Z,101713.16
2018-03-19T03:29:45.364Z,101712.27
2018-03-19T03:30:50.458Z,101711.45
2018-03-19T03:31:55.134Z,101708.84
2018-03-19T03:32:59.962Z,101706.36
2018-03-19T03:34:05.060Z,101703.91
2018-03-19T03:35:10.216Z,101706.05
2018-03-19T03:36:14.716Z,101709.71
2018-03-19T03:37:20.220Z,101707.29
2018-03-19T03:38:24.630Z,101698.86
2018-03-19T03:39:29.640Z,101706.15
2018-03-19T03:40:35.039Z,101709.32
2018-03-19T03:41:39.606Z,101711.28
2018-03-19T03:42:44.275Z,101712.44
2018-03-19T03:43:48.802Z,101712.67
2018-03-19T03:44:53.304Z,101706.91
2018-03-19T03:45:58.608Z,101704.53
2018-03-19T03:47:03.041Z,101706.88
2018-03-19T03:48:07.715Z,101709.33
2018-03-19T03:49:12.185Z,101704.77
2018-03-19T03:50:16.583Z,101710.89
2018-03-19T03:51:21.208Z,101704.87
2018-03-19T03:52:26.080Z,101702.87
2018-03-19T03:53:30.828Z,101698.96
2018-03-19T03:54:35.674Z,101698.59
2018-03-19T03:55:40.150Z,101703.67
2018-03-19T03:56:44.694Z,101708.80
2018-03-19T03:57:49.084Z,101709.84
2018-03-19T03:58:53.907Z,101700.75
2018-03-19T03:59:58.481Z,101703.80
2018-03-19T04:01:03.338Z,101702.39
2018-03-19T04:02:08.204Z,101707.73
2018-03-19T04:03:12.757Z,101702.78
2018-03-19T04:04:17.495Z,101701.83
2018-03-19T04:05:22.211Z,101696.85
2018-03-19T04:06:27.087Z,101707.28
2018-03-19T04:07:32.339Z,101702.53
2018-03-19T04:08:36.583Z,101703.53
2018-03-19T04:09:41.364Z,101707.17
2018-03-19T04:10:45.962Z,101700.33
2018-03-19T04:11:50.624Z,101710.44
2018-03-19T04:12:54.892Z,101700.50
2018-03-19T04:13:59.311Z,101709.15
2018-03-19T04:15:06.136Z,101709.66
2018-03-19T04:16:10.730Z,101704.84
2018-03-19T04:17:15.598Z,101709.59
2018-03-19T04:18:20.152Z,101712.13
2018-03-19T04:19:24.767Z,101714.64
2018-03-19T04:20:29.330Z,101709.81
2018-03-19T04:21:34.447Z,101713.57
2018-03-19T04:22:39.172Z,101709.59
2018-03-19T04:23:43.961Z,101715.30
2018-03-19T04:24:48.843Z,101718.30
2018-03-19T04:25:53.356Z,101716.88
2018-03-19T04:26:57.837Z,101712.94
2018-03-19T04:28:02.593Z,101716.28
2018-03-19T04:29:07.785Z,101716.57
2018-03-19T04:30:14.223Z,101717.05
2018-03-19T04:31:18.848Z,101719.66
2018-03-19T04:32:23.859Z,101717.70
2018-03-19T04:33:28.626Z,101712.34
2018-03-19T04:34:33.463Z,101718.14
2018-03-19T04:35:38.154Z,101721.30
2018-03-19T04:36:42.851Z,101712.91
2018-03-19T04:37:47.402Z,101707.84
2018-03-19T04:38:51.953Z,101723.58
2018-03-19T04:39:57.139Z,101721.63
2018-03-19T04:41:01.920Z,101705.98
2018-03-19T04:42:06.786Z,101716.64
2018-03-19T04:43:11.615Z,101715.98
2018-03-19T04:44:16.320Z,101719.59
2018-03-19T04:45:21.247Z,101723.28
2018-03-19T04:46:25.502Z,101723.06
2018-03-19T04:47:29.941Z,101720.33
2018-03-19T04:48:34.303Z,101715.68
2018-03-19T04:49:39.040Z,101722.44
2018-03-19T04:50:43.918Z,101721.61
2018-03-19T04:51:48.662Z,101721.16
2018-03-19T04:52:53.450Z,101722.91
2018-03-19T04:53:57.990Z,101721.37
2018-03-19T04:55:02.694Z,101719.06
2018-03-19T04:56:07.589Z,101726.70
2018-03-19T04:57:12.213Z,101726.27
2018-03-19T04:58:16.576Z,101714.67
2018-03-19T04:59:21.103Z,101720.41
2018-03-19T05:00:26.245Z,101722.88
2018-03-19T05:01:31.611Z,101726.45
2018-03-19T05:02:37.058Z,101725.30
2018-03-19T05:03:41.394Z,101728.09
2018-03-19T05:04:45.870Z,101726.13
2018-03-19T05:05:50.312Z,101728.60
2018-03-19T05:06:55.221Z,101729.60
2018-03-19T05:07:59.712Z,101734.61
2018-03-19T05:09:04.119Z,101733.55
2018-03-19T05:10:08.635Z,101731.94
2018-03-19T05:11:13.481Z,101730.51
2018-03-19T05:12:18.060Z,101735.32
2018-03-19T05:13:23.872Z,101737.78
2018-03-19T05:14:28.353Z,101732.31
2018-03-19T05:15:33.965Z,101730.27
2018-03-19T05:16:38.618Z,101731.70
2018-03-19T05:17:43.662Z,101727.17
2018-03-19T05:18:48.077Z,101738.53
2018-03-19T05:19:52.783Z,101732.69
2018-03-19T05:20:57.351Z,101727.38
2018-03-19T05:22:01.821Z,101736.78
2018-03-19T05:23:06.388Z,101724.72
2018-03-19T05:24:10.888Z,101732.03
2018-03-19T05:25:15.796Z,101729.13
2018-03-19T05:26:20.414Z,101729.88
2018-03-19T05:27:25.208Z,101728.72
2018-03-19T05:28:29.957Z,101732.81
2018-03-19T05:29:34.786Z,101733.33
2018-03-19T05:30:40.070Z,101732.66
2018-03-19T05:31:45.188Z,101736.63
2018-03-19T05:32:50.234Z,101731.84
2018-03-19T05:33:54.792Z,101736.70
2018-03-19T05:34:59.156Z,101738.75
2018-03-19T05:36:03.542Z,101726.27
2018-03-19T05:37:08.475Z,101735.07
2018-03-19T05:38:13.627Z,101736.15
2018-03-19T05:39:18.352Z,101739.31
2018-03-19T05:40:23.032Z,101739.53
2018-03-19T05:41:27.858Z,101734.41
2018-03-19T05:42:32.920Z,101740.80
2018-03-19T05:43:37.942Z,101733.92
2018-03-19T05:44:42.799Z,101737.11
2018-03-19T05:45:48.277Z,101740.31
2018-03-19T05:46:53.332Z,101739.45
2018-03-19T05:47:57.834Z,101743.02
2018-03-19T05:49:03.049Z,101744.69
2018-03-19T05:50:07.600Z,101742.94
2018-03-19T05:51:12.764Z,101743.53
2018-03-19T05:52:17.782Z,101748.55
2018-03-19T05:53:23.442Z,101753.05
2018-03-19T05:54:28.364Z,101753.72
2018-03-19T05:55:34.218Z,101742.80
2018-03-19T05:56:39.442Z,101747.00
2018-03-19T05:57:44.465Z,101747.11
2018-03-19T05:58:49.245Z,101750.34
2018-03-19T05:59:54.288Z,101752.53
2018-03-19T06:00:59.627Z,101755.61
2018-03-19T06:02:04.554Z,101750.48
2018-03-19T06:03:09.939Z,101756.50
2018-03-19T06:04:14.921Z,101751.66
2018-03-19T06:05:20.079Z,101747.77
2018-03-19T06:06:25.771Z,101752.09
2018-03-19T06:07:30.829Z,101748.59
2018-03-19T06:08:35.836Z,101750.29
2018-03-19T06:09:40.806Z,101754.27
2018-03-19T06:10:45.832Z,101760.00
2018-03-19T06:11:51.055Z,101757.69
2018-03-19T06:12:56.269Z,101747.99
2018-03-19T06:14:01.781Z,101759.19
2018-03-19T06:15:07.511Z,101759.50
2018-03-19T06:16:12.686Z,101759.72
2018-03-19T06:17:18.010Z,101758.56
2018-03-19T06:18:23.073Z,101760.30
2018-03-19T06:19:28.046Z,101761.47
2018-03-19T06:20:33.152Z,101762.74
2018-03-19T06:21:40.108Z,101760.77
2018-03-19T06:22:45.204Z,101763.17
2018-03-19T06:23:50.340Z,101761.62
2018-03-19T06:24:55.838Z,101761.81
2018-03-19T06:26:01.143Z,101762.36
2018-03-19T06:27:06.721Z,101764.64
2018-03-19T06:28:12.086Z,101765.77
2018-03-19T06:29:17.309Z,101772.19
2018-03-19T06:30:22.963Z,101774.55
2018-03-19T06:31:28.355Z,101766.40
2018-03-19T06:32:33.492Z,101771.87
2018-03-19T06:33:39.759Z,101774.03
2018-03-19T06:34:44.699Z,101771.09
2018-03-19T06:35:50.049Z,101772.25
2018-03-19T06:36:55.172Z,101763.69
2018-03-19T06:38:00.297Z,101771.19
2018-03-19T06:39:05.968Z,101773.06
2018-03-19T06:40:11.075Z,101769.94
2018-03-19T06:41:16.128Z,101771.88
2018-03-19T06:42:21.216Z,101763.39
2018-03-19T06:43:26.917Z,101773.42
2018-03-19T06:44:31.973Z,101778.57
2018-03-19T06:45:37.737Z,101775.80
2018-03-19T06:46:42.845Z,101766.05
2018-03-19T06:47:47.892Z,101770.30
2018-03-19T06:48:53.221Z,101775.64
2018-03-19T06:49:58.003Z,101779.58
2018-03-19T06:51:03.323Z,101777.78
2018-03-19T06:52:08.385Z,101780.97
2018-03-19T06:53:13.468Z,101779.51
2018-03-19T06:54:18.659Z,101775.91
2018-03-19T06:55:23.915Z,101781.27
2018-03-19T06:56:29.901Z,101778.56
2018-03-19T06:57:34.799Z,101779.44
2018-03-19T06:58:40.827Z,101781.52
2018-03-19T06:59:46.078Z,101780.29
2018-03-19T07:00:51.054Z,101789.28
2018-03-19T07:01:56.533Z,101785.59
2018-03-19T07:03:01.973Z,101790.52
2018-03-19T07:04:06.983Z,101780.27
2018-03-19T07:05:11.953Z,101789.53
2018-03-19T07:06:16.923Z,101777.83
2018-03-19T07:07:22.012Z,101779.96
2018-03-19T07:08:27.095Z,101785.06
2018-03-19T07:09:32.662Z,101786.98
2018-03-19T07:10:38.671Z,101787.35
2018-03-19T07:11:44.293Z,101789.61
2018-03-19T07:12:49.231Z,101783.52
2018-03-19T07:13:54.351Z,101776.98
2018-03-19T07:14:59.277Z,101784.30
2018-03-19T07:16:04.651Z,101786.51
2018-03-19T07:17:09.616Z,101789.69
2018-03-19T07:18:14.644Z,101791.66
2018-03-19T07:19:19.805Z,101791.37
2018-03-19T07:20:24.587Z,101791.81
2018-03-19T07:21:31.536Z,101795.23
2018-03-19T07:22:36.685Z,101796.40
2018-03-19T07:23:41.952Z,101796.17
2018-03-19T07:24:48.180Z,101786.50
2018-03-19T07:25:53.718Z,101801.33
2018-03-19T07:26:58.782Z,101788.54
2018-03-19T07:28:03.927Z,101799.32
2018-03-19T07:29:08.779Z,101804.80
2018-03-19T07:30:15.782Z,101804.96
2018-03-19T07:31:21.025Z,101799.19
2018-03-19T07:32:26.406Z,101807.70
2018-03-19T07:33:31.511Z,101800.95
2018-03-19T07:34:37.422Z,101809.37
2018-03-19T07:35:42.643Z,101804.70
2018-03-19T07:36:47.907Z,101809.75
2018-03-19T07:37:53.118Z,101796.16
2018-03-19T07:38:58.553Z,101798.33
2018-03-19T07:40:03.808Z,101797.62
2018-03-19T07:41:08.928Z,101800.06
2018-03-19T07:42:14.114Z,101799.38
2018-03-19T07:43:19.314Z,101804.17
2018-03-19T07:44:24.348Z,101799.86
2018-03-19T07:45:30.097Z,101802.72
2018-03-19T07:46:35.159Z,101794.21
2018-03-19T07:47:40.292Z,101800.57
2018-03-19T07:48:46.172Z,101804.27
2018-03-19T07:49:51.441Z,101803.83
2018-03-19T07:50:56.579Z,101806.71
2018-03-19T07:52:01.927Z,101799.66
2018-03-19T07:53:07.043Z,101799.80
2018-03-19T07:54:12.169Z,101806.47
2018-03-19T07:55:17.304Z,101800.30
2018-03-19T07:56:22.360Z,101802.75
2018-03-19T07:57:27.541Z,101808.56
2018-03-19T07:58:32.578Z,101796.84
2018-03-19T07:59:37.790Z,101805.14
2018-03-19T08:00:44.224Z,101800.56
2018-03-19T08:01:49.381Z,101804.30
2018-03-19T08:02:54.621Z,101792.39
2018-03-19T08:04:00.007Z,101801.91
2018-03-19T08:05:05.072Z,101804.20
2018-03-19T08:06:10.183Z,101804.34
2018-03-19T08:07:15.253Z,101812.96
2018-03-19T08:08:20.252Z,101800.92
2018-03-19T08:09:25.038Z,101804.13
2018-03-19T08:10:30.516Z,101814.72
2018-03-19T08:11:35.712Z,101809.25
2018-03-19T08:12:40.892Z,101811.70
2018-03-19T08:13:46.493Z,101813.27
2018-03-19T08:14:51.530Z,101795.44
2018-03-19T08:15:56.682Z,101801.88
2018-03-19T08:17:01.875Z,101811.66
2018-03-19T08:18:06.908Z,101802.91
2018-03-19T08:19:11.986Z,101814.45
2018-03-19T08:20:16.850Z,101813.17
2018-03-19T08:21:22.595Z,101807.64
2018-03-19T08:22:27.756Z,101790.00
2018-03-19T08:23:33.677Z,101814.02
2018-03-19T08:24:40.358Z,101812.11
2018-03-19T08:25:45.505Z,101811.98
2018-03-19T08:26:55.052Z,101810.11
2018-03-19T08:28:00.197Z,101807.65
2018-03-19T08:29:05.151Z,101811.83
2018-03-19T08:30:12.683Z,101804.38
2018-03-19T08:31:17.847Z,101802.83
2018-03-19T08:32:22.858Z,101810.10
2018-03-19T08:33:28.056Z,101820.45
2018-03-19T08:34:34.204Z,101815.52
2018-03-19T08:37:05.450Z,101811.23
2018-03-19T08:38:11.045Z,101804.50
2018-03-19T08:39:16.809Z,101807.95
2018-03-19T08:40:21.935Z,101809.87
2018-03-19T08:41:29.068Z,101800.02
2018-03-19T08:42:36.344Z,101801.20
2018-03-19T08:43:41.829Z,101801.97
2018-03-19T08:44:46.808Z,101794.89
2018-03-19T08:45:52.377Z,101794.33
2018-03-19T08:46:58.487Z,101798.30
2018-03-19T08:48:03.881Z,101800.45
2018-03-19T08:49:09.438Z,101799.66
2018-03-19T08:50:16.657Z,101795.81
2018-03-19T08:51:23.862Z,101797.51
2018-03-19T08:52:33.098Z,101791.77
2018-03-19T08:53:38.280Z,101793.61
2018-03-19T08:54:43.358Z,101792.53
2018-03-19T08:55:48.554Z,101788.05
2018-03-19T08:56:54.717Z,101795.30
2018-03-19T08:58:00.689Z,101799.20
2018-03-19T08:59:05.568Z,101780.16
2018-03-19T09:00:10.719Z,101785.33
2018-03-19T09:01:17.072Z,101786.46
2018-03-19T09:02:22.594Z,101793.92
2018-03-19T09:03:29.107Z,101787.53
2018-03-19T09:04:36.095Z,101784.64
2018-03-19T09:05:41.246Z,101785.97
2018-03-19T09:06:48.429Z,101789.09
2018-03-19T09:07:53.654Z,101777.67
2018-03-19T09:08:59.349Z,101791.02
2018-03-19T09:10:05.975Z,101783.36
2018-03-19T09:11:11.699Z,101782.80
2018-03-19T09:12:17.377Z,101787.64
2018-03-19T09:13:23.165Z,101783.24
2018-03-19T09:14:28.143Z,101781.07
2018-03-19T09:15:34.300Z,101773.90
2018-03-19T09:16:40.676Z,101785.05
2018-03-19T09:17:46.454Z,101783.10
2018-03-19T09:18:51.581Z,101768.64
2018-03-19T09:19:56.539Z,101779.11
2018-03-19T09:21:03.476Z,101779.02
2018-03-19T09:22:09.780Z,101777.56
2018-03-19T09:23:16.699Z,101770.09
2018-03-19T09:24:22.871Z,101773.42
2018-03-19T09:25:28.213Z,101773.11
2018-03-19T09:26:32.967Z,101774.16
2018-03-19T09:27:37.751Z,101773.01
2018-03-19T09:28:44.080Z,101777.16
2018-03-19T09:29:54.490Z,101775.63
2018-03-19T09:31:00.173Z,101773.14
2018-03-19T09:32:07.081Z,101773.22
2018-03-19T09:33:12.193Z,101775.27
2018-03-19T09:34:17.301Z,101770.33
2018-03-19T09:35:23.724Z,101771.47
2018-03-19T09:36:28.799Z,101768.82
2018-03-19T09:37:35.514Z,101768.50
2018-03-19T09:38:41.295Z,101772.15
2018-03-19T09:39:47.072Z,101768.15
2018-03-19T09:40:53.084Z,101771.52
2018-03-19T09:41:58.249Z,101781.19
2018-03-19T09:43:03.207Z,101776.37
2018-03-19T09:44:08.213Z,101781.61
2018-03-19T09:45:17.642Z,101788.23
2018-03-19T09:46:23.196Z,101786.19
2018-03-19T09:47:28.403Z,101782.95
2018-03-19T09:48:35.038Z,101785.59
2018-03-19T09:49:41.975Z,101784.84
2018-03-19T09:50:48.699Z,101784.86
2018-03-19T09:51:54.492Z,101784.80
2018-03-19T09:53:00.578Z,101783.00
2018-03-19T09:54:06.507Z,101782.20
2018-03-19T09:55:13.147Z,101786.40
2018-03-19T09:56:19.085Z,101785.25
2018-03-19T09:57:28.756Z,101787.01
2018-03-19T09:58:34.893Z,101784.28
2018-03-19T09:59:42.978Z,101781.62
2018-03-19T10:00:49.111Z,101786.48
2018-03-19T10:01:55.852Z,101781.73
2018-03-19T10:03:01.568Z,101776.02
2018-03-19T10:04:08.290Z,101780.59
2018-03-19T10:05:14.528Z,101765.50
2018-03-19T10:06:20.925Z,101778.73
2018-03-19T10:07:26.893Z,101777.22
2018-03-19T10:08:32.160Z,101772.15
2018-03-19T10:09:39.182Z,101769.23
2018-03-19T10:10:45.309Z,101774.88
2018-03-19T10:11:51.285Z,101772.74
2018-03-19T10:12:56.446Z,101766.43
2018-03-19T10:14:01.152Z,101770.30
2018-03-19T10:15:08.123Z,101763.13
2018-03-19T10:16:13.149Z,101769.28
2018-03-19T10:17:18.901Z,101770.79
2018-03-19T10:18:23.807Z,101766.61
2018-03-19T10:19:29.665Z,101762.73
2018-03-19T10:20:35.779Z,101764.33
2018-03-19T10:21:41.642Z,101769.42
2018-03-19T10:22:47.499Z,101763.20
2018-03-19T10:23:52.444Z,101760.66
2018-03-19T10:24:57.688Z,101751.87
2018-03-19T10:26:03.924Z,101747.36
2018-03-19T10:27:08.937Z,101758.38
2018-03-19T10:28:27.569Z,101759.42
2018-03-19T10:29:33.058Z,101752.50
2018-03-19T10:30:38.671Z,101748.52
2018-03-19T10:31:45.088Z,101750.15
2018-03-19T10:32:50.911Z,101754.52
2018-03-19T10:34:00.372Z,101756.83
2018-03-19T10:35:06.690Z,101740.45
2018-03-19T10:36:11.632Z,101746.09
2018-03-19T10:37:16.704Z,101745.70
2018-03-19T10:38:21.904Z,101741.56
2018-03-19T10:39:26.737Z,101745.64
2018-03-19T10:40:31.889Z,101753.14
2018-03-19T10:41:40.366Z,101738.58
2018-03-19T10:42:45.308Z,101753.33
2018-03-19T10:43:51.202Z,101741.11
2018-03-19T10:44:56.601Z,101749.05
2018-03-19T10:46:01.722Z,101745.44
2018-03-19T10:47:06.584Z,101753.03
2018-03-19T10:48:11.192Z,101735.53
2018-03-19T10:50:41.766Z,101740.95
2018-03-19T10:51:58.301Z,101745.77
2018-03-19T10:53:06.971Z,101747.13
2018-03-19T10:54:13.486Z,101741.59
2018-03-19T10:55:19.232Z,101744.33
2018-03-19T10:56:25.635Z,101744.74
2018-03-19T10:57:32.071Z,101737.22
2018-03-19T10:58:37.334Z,101740.50
2018-03-19T10:59:43.091Z,101737.44
2018-03-19T11:02:13.665Z,101736.03
2018-03-19T11:03:24.576Z,101736.30
2018-03-19T11:04:31.311Z,101736.23
2018-03-19T11:05:41.103Z,101730.83
2018-03-19T11:06:47.098Z,101716.52
2018-03-19T11:07:56.363Z,101719.80
2018-03-19T11:09:06.957Z,101724.69
2018-03-19T11:10:11.649Z,101723.48
2018-03-19T11:11:16.445Z,101712.74
2018-03-19T11:12:21.544Z,101718.03
2018-03-19T11:13:27.007Z,101714.94
2018-03-19T11:14:32.801Z,101715.44
2018-03-19T11:15:39.850Z,101719.90
2018-03-19T11:16:45.745Z,101715.34
2018-03-19T11:17:53.726Z,101713.70
2018-03-19T11:19:01.937Z,101718.63
2018-03-19T11:20:08.186Z,101722.59
2018-03-19T11:21:13.278Z,101724.80
2018-03-19T11:22:19.801Z,101722.14
2018-03-19T11:23:27.757Z,101715.91
2018-03-19T11:24:33.070Z,101716.23
2018-03-19T11:25:38.237Z,101719.02
2018-03-19T11:26:45.116Z,101714.63
2018-03-19T11:27:51.848Z,101715.50
2018-03-19T11:28:58.433Z,101717.55
2018-03-19T11:30:07.319Z,101724.36
2018-03-19T11:31:15.186Z,101721.70
2018-03-19T11:32:20.646Z,101726.15
2018-03-19T11:33:26.059Z,101711.78
2018-03-19T11:34:37.066Z,101708.75
2018-03-19T11:35:41.788Z,101722.83
2018-03-19T11:36:47.342Z,101711.45
2018-03-19T11:37:53.478Z,101698.58
2018-03-19T11:38:58.298Z,101715.06
2018-03-19T11:40:04.996Z,101719.47
2018-03-19T11:41:09.846Z,101711.91
2018-03-19T11:42:17.564Z,101714.03
2018-03-19T11:43:23.874Z,101702.94
2018-03-19T11:44:28.694Z,101708.14
2018-03-19T11:45:35.416Z,101705.17
2018-03-19T11:46:41.277Z,101703.57
2018-03-19T11:47:49.078Z,101695.79
2018-03-19T11:48:56.120Z,101696.05
2018-03-19T11:50:01.820Z,101706.54
2018-03-19T11:51:07.211Z,101703.05
2018-03-19T11:52:14.175Z,101706.75
2018-03-19T11:53:19.810Z,101710.84
2018-03-19T11:54:24.558Z,101707.34
2018-03-19T11:55:29.941Z,101705.88
2018-03-19T11:56:35.998Z,101699.34
2018-03-19T11:57:42.631Z,101704.22
2018-03-19T11:58:48.840Z,101697.13
2018-03-19T11:59:55.379Z,101687.34
2018-03-19T12:01:07.822Z,101707.16
2018-03-19T12:02:13.122Z,101703.30
2018-03-19T12:03:17.998Z,101699.23
2018-03-19T12:04:23.656Z,101691.02
2018-03-19T12:05:33.338Z,101695.72
2018-03-19T12:06:38.458Z,101699.19
2018-03-19T12:07:44.189Z,101691.35
2018-03-19T12:08:49.561Z,101693.41
2018-03-19T12:10:03.796Z,101688.39
2018-03-19T12:11:08.650Z,101690.40
2018-03-19T12:12:14.496Z,101683.06
2018-03-19T12:13:19.952Z,101681.16
2018-03-19T12:14:25.169Z,101688.44
2018-03-19T12:15:31.306Z,101688.27
2018-03-19T12:16:36.834Z,101679.25
2018-03-19T12:17:42.294Z,101678.63
2018-03-19T12:18:48.253Z,101677.56
2018-03-19T12:19:52.990Z,101674.78
2018-03-19T12:20:59.651Z,101677.56
2018-03-19T12:22:05.090Z,101673.12
2018-03-19T12:23:11.175Z,101662.12
2018-03-19T12:24:16.827Z,101671.80
2018-03-19T12:25:22.390Z,101669.97
2018-03-19T12:26:27.999Z,101669.70
2018-03-19T12:27:34.054Z,101670.33
2018-03-19T12:28:43.377Z,101671.03
2018-03-19T12:29:58.149Z,101662.47
2018-03-19T12:31:07.226Z,101658.03